sensor_id;sensor_type;location;lat;lon;timestamp;temperature;humidity
14057;DHT22;7103;54.300;10.180;2022-12-05T00:01:29;6.00;6.80
14057;DHT22;7103;54.300;10.180;2022-12-05T00:04:02;6.00;10.50
14057;DHT22;7103;54.300;10.180;2022-12-05T00:06:30;6.00;10.70
14057;DHT22;7103;54.300;10.180;2022-12-05T00:08:58;6.00;14.10
14057;DHT22;7103;54.300;10.180;2022-12-05T00:11:27;6.00;12.10
14057;DHT22;7103;54.300;10.180;2022-12-05T00:13:55;5.90;19.20
14057;DHT22;7103;54.300;10.180;2022-12-05T00:16:24;5.90;31.60
14057;DHT22;7103;54.300;10.180;2022-12-05T00:18:52;5.90;40.50
14057;DHT22;7103;54.300;10.180;2022-12-05T00:21:22;5.90;49.30
14057;DHT22;7103;54.300;10.180;2022-12-05T00:23:49;6.00;49.40
14057;DHT22;7103;54.300;10.180;2022-12-05T00:26:17;6.00;49.40
14057;DHT22;7103;54.300;10.180;2022-12-05T00:28:44;6.00;41.70
14057;DHT22;7103;54.300;10.180;2022-12-05T00:31:14;6.00;43.60
14057;DHT22;7103;54.300;10.180;2022-12-05T00:33:43;5.90;37.60
14057;DHT22;7103;54.300;10.180;2022-12-05T00:36:12;5.80;33.80
14057;DHT22;7103;54.300;10.180;2022-12-05T00:38:40;5.90;43.50
14057;DHT22;7103;54.300;10.180;2022-12-05T00:41:13;5.90;42.90
14057;DHT22;7103;54.300;10.180;2022-12-05T00:43:40;5.90;44.00
14057;DHT22;7103;54.300;10.180;2022-12-05T00:46:10;6.00;49.40
14057;DHT22;7103;54.300;10.180;2022-12-05T00:48:37;6.00;37.70
14057;DHT22;7103;54.300;10.180;2022-12-05T00:51:13;5.90;31.50
14057;DHT22;7103;54.300;10.180;2022-12-05T00:53:41;5.90;28.20
14057;DHT22;7103;54.300;10.180;2022-12-05T00:56:17;6.00;35.50
14057;DHT22;7103;54.300;10.180;2022-12-05T00:58:45;6.00;26.60
14057;DHT22;7103;54.300;10.180;2022-12-05T01:01:18;6.00;24.10
14057;DHT22;7103;54.300;10.180;2022-12-05T01:03:46;5.90;16.90
14057;DHT22;7103;54.300;10.180;2022-12-05T01:06:14;6.00;14.30
14057;DHT22;7103;54.300;10.180;2022-12-05T01:08:41;5.90;1.50
14057;DHT22;7103;54.300;10.180;2022-12-05T01:11:17;6.00;1.00
14057;DHT22;7103;54.300;10.180;2022-12-05T01:13:45;5.90;1.00
14057;DHT22;7103;54.300;10.180;2022-12-05T01:16:23;6.00;1.00
14057;DHT22;7103;54.300;10.180;2022-12-05T01:18:51;5.90;1.00
14057;DHT22;7103;54.300;10.180;2022-12-05T01:21:19;5.90;1.00
14057;DHT22;7103;54.300;10.180;2022-12-05T01:23:46;5.90;1.00
14057;DHT22;7103;54.300;10.180;2022-12-05T01:26:14;5.90;1.00
14057;DHT22;7103;54.300;10.180;2022-12-05T01:28:41;6.00;1.00
14057;DHT22;7103;54.300;10.180;2022-12-05T01:31:21;5.90;1.00
14057;DHT22;7103;54.300;10.180;2022-12-05T01:33:48;6.00;1.00
14057;DHT22;7103;54.300;10.180;2022-12-05T01:36:16;5.90;1.00
14057;DHT22;7103;54.300;10.180;2022-12-05T01:38:43;5.90;1.00
14057;DHT22;7103;54.300;10.180;2022-12-05T01:41:14;6.00;1.00
14057;DHT22;7103;54.300;10.180;2022-12-05T01:44:05;6.00;1.00
14057;DHT22;7103;54.300;10.180;2022-12-05T01:46:35;6.00;1.00
14057;DHT22;7103;54.300;10.180;2022-12-05T01:49:07;6.00;1.00
14057;DHT22;7103;54.300;10.180;2022-12-05T01:51:36;6.00;1.00
14057;DHT22;7103;54.300;10.180;2022-12-05T01:54:05;5.90;1.00
14057;DHT22;7103;54.300;10.180;2022-12-05T01:56:33;5.90;1.00
14057;DHT22;7103;54.300;10.180;2022-12-05T01:59:02;6.00;1.00
14057;DHT22;7103;54.300;10.180;2022-12-05T02:01:30;6.00;1.00
14057;DHT22;7103;54.300;10.180;2022-12-05T02:03:57;5.90;1.00
14057;DHT22;7103;54.300;10.180;2022-12-05T02:06:26;5.90;1.00
14057;DHT22;7103;54.300;10.180;2022-12-05T02:08:54;5.90;1.00
14057;DHT22;7103;54.300;10.180;2022-12-05T02:11:22;5.90;1.00
14057;DHT22;7103;54.300;10.180;2022-12-05T02:31:35;5.90;1.00
14057;DHT22;7103;54.300;10.180;2022-12-05T02:34:28;6.00;1.00
14057;DHT22;7103;54.300;10.180;2022-12-05T02:37:03;5.90;1.00
14057;DHT22;7103;54.300;10.180;2022-12-05T02:42:17;5.90;1.00
14057;DHT22;7103;54.300;10.180;2022-12-05T02:44:51;5.90;1.00
14057;DHT22;7103;54.300;10.180;2022-12-05T02:47:23;5.90;1.00
14057;DHT22;7103;54.300;10.180;2022-12-05T02:49:52;5.90;1.00
14057;DHT22;7103;54.300;10.180;2022-12-05T02:52:20;6.00;1.00
14057;DHT22;7103;54.300;10.180;2022-12-05T02:54:50;6.00;1.00
14057;DHT22;7103;54.300;10.180;2022-12-05T02:57:18;5.90;1.00
14057;DHT22;7103;54.300;10.180;2022-12-05T02:59:46;5.90;1.00
14057;DHT22;7103;54.300;10.180;2022-12-05T03:02:46;5.80;1.00
14057;DHT22;7103;54.300;10.180;2022-12-05T03:07:47;5.90;1.00
14057;DHT22;7103;54.300;10.180;2022-12-05T03:10:17;6.00;1.00
14057;DHT22;7103;54.300;10.180;2022-12-05T03:12:50;5.80;1.00
14057;DHT22;7103;54.300;10.180;2022-12-05T03:15:45;5.90;1.00
14057;DHT22;7103;54.300;10.180;2022-12-05T03:18:21;5.90;1.00
14057;DHT22;7103;54.300;10.180;2022-12-05T03:21:19;5.80;1.00
14057;DHT22;7103;54.300;10.180;2022-12-05T03:23:52;5.80;1.00
14057;DHT22;7103;54.300;10.180;2022-12-05T03:29:35;5.90;1.00
14057;DHT22;7103;54.300;10.180;2022-12-05T03:37:26;5.80;1.00
14057;DHT22;7103;54.300;10.180;2022-12-05T03:40:05;5.90;1.00
14057;DHT22;7103;54.300;10.180;2022-12-05T03:42:37;5.80;1.00
14057;DHT22;7103;54.300;10.180;2022-12-05T03:45:11;5.80;1.00
14057;DHT22;7103;54.300;10.180;2022-12-05T03:48:02;5.80;1.00
14057;DHT22;7103;54.300;10.180;2022-12-05T03:50:34;5.80;1.00
14057;DHT22;7103;54.300;10.180;2022-12-05T03:53:06;5.80;1.00
14057;DHT22;7103;54.300;10.180;2022-12-05T03:56:20;5.80;1.00
14057;DHT22;7103;54.300;10.180;2022-12-05T04:01:32;5.80;1.00
14057;DHT22;7103;54.300;10.180;2022-12-05T04:04:10;5.90;1.00
14057;DHT22;7103;54.300;10.180;2022-12-05T04:06:40;5.80;1.00
14057;DHT22;7103;54.300;10.180;2022-12-05T04:09:16;5.80;1.00
14057;DHT22;7103;54.300;10.180;2022-12-05T04:11:54;5.80;1.00
14057;DHT22;7103;54.300;10.180;2022-12-05T04:14:27;5.80;1.00
14057;DHT22;7103;54.300;10.180;2022-12-05T04:17:01;5.80;1.00
14057;DHT22;7103;54.300;10.180;2022-12-05T04:20:00;5.90;1.00
14057;DHT22;7103;54.300;10.180;2022-12-05T04:22:48;5.80;1.00
14057;DHT22;7103;54.300;10.180;2022-12-05T04:25:16;5.80;1.00
14057;DHT22;7103;54.300;10.180;2022-12-05T04:28:09;5.80;1.00
14057;DHT22;7103;54.300;10.180;2022-12-05T04:30:49;5.80;1.00
14057;DHT22;7103;54.300;10.180;2022-12-05T04:36:18;5.90;1.00
14057;DHT22;7103;54.300;10.180;2022-12-05T04:41:30;5.80;1.00
14057;DHT22;7103;54.300;10.180;2022-12-05T04:44:02;5.70;1.00
14057;DHT22;7103;54.300;10.180;2022-12-05T04:46:30;5.70;1.00
14057;DHT22;7103;54.300;10.180;2022-12-05T04:49:00;5.70;1.00
14057;DHT22;7103;54.300;10.180;2022-12-05T04:51:31;5.80;1.00
14057;DHT22;7103;54.300;10.180;2022-12-05T04:54:04;5.70;1.00
14057;DHT22;7103;54.300;10.180;2022-12-05T04:56:35;5.70;1.00
14057;DHT22;7103;54.300;10.180;2022-12-05T04:59:03;5.70;1.00
14057;DHT22;7103;54.300;10.180;2022-12-05T05:04:11;5.80;1.00
14057;DHT22;7103;54.300;10.180;2022-12-05T05:06:40;5.70;1.00
14057;DHT22;7103;54.300;10.180;2022-12-05T05:09:08;5.80;1.00
14057;DHT22;7103;54.300;10.180;2022-12-05T05:11:35;5.70;1.00
14057;DHT22;7103;54.300;10.180;2022-12-05T05:14:03;5.70;1.00
14057;DHT22;7103;54.300;10.180;2022-12-05T05:16:33;5.90;1.00
14057;DHT22;7103;54.300;10.180;2022-12-05T05:19:00;5.80;1.00
14057;DHT22;7103;54.300;10.180;2022-12-05T05:21:33;5.80;1.00
14057;DHT22;7103;54.300;10.180;2022-12-05T05:24:01;5.80;1.00
14057;DHT22;7103;54.300;10.180;2022-12-05T05:26:30;5.90;1.00
14057;DHT22;7103;54.300;10.180;2022-12-05T05:28:57;5.70;1.00
14057;DHT22;7103;54.300;10.180;2022-12-05T05:31:24;5.80;1.00
14057;DHT22;7103;54.300;10.180;2022-12-05T05:33:53;5.80;1.00
14057;DHT22;7103;54.300;10.180;2022-12-05T05:36:21;5.80;1.00
14057;DHT22;7103;54.300;10.180;2022-12-05T05:39:01;5.70;1.00
14057;DHT22;7103;54.300;10.180;2022-12-05T05:41:30;5.70;1.00
14057;DHT22;7103;54.300;10.180;2022-12-05T05:43:58;6.00;6.80
14057;DHT22;7103;54.300;10.180;2022-12-05T05:46:30;5.80;6.70
14057;DHT22;7103;54.300;10.180;2022-12-05T05:48:58;5.80;7.40
14057;DHT22;7103;54.300;10.180;2022-12-05T05:51:25;5.80;6.70
14057;DHT22;7103;54.300;10.180;2022-12-05T05:53:56;6.10;11.00
14057;DHT22;7103;54.300;10.180;2022-12-05T05:56:23;5.90;8.90
14057;DHT22;7103;54.300;10.180;2022-12-05T05:58:58;5.90;6.70
14057;DHT22;7103;54.300;10.180;2022-12-05T06:01:26;5.90;9.10
14057;DHT22;7103;54.300;10.180;2022-12-05T06:03:53;5.90;3.50
14057;DHT22;7103;54.300;10.180;2022-12-05T06:06:21;5.90;1.60
14057;DHT22;7103;54.300;10.180;2022-12-05T06:08:48;5.90;2.70
14057;DHT22;7103;54.300;10.180;2022-12-05T06:11:18;5.90;1.00
14057;DHT22;7103;54.300;10.180;2022-12-05T06:13:57;5.90;1.60
14057;DHT22;7103;54.300;10.180;2022-12-05T06:16:28;5.90;12.00
14057;DHT22;7103;54.300;10.180;2022-12-05T06:18:55;5.90;6.70
14057;DHT22;7103;54.300;10.180;2022-12-05T06:21:22;5.90;6.70
14057;DHT22;7103;54.300;10.180;2022-12-05T06:23:49;5.90;6.70
14057;DHT22;7103;54.300;10.180;2022-12-05T06:26:19;5.90;11.60
14057;DHT22;7103;54.300;10.180;2022-12-05T06:28:46;5.90;11.80
14057;DHT22;7103;54.300;10.180;2022-12-05T06:31:21;5.90;16.70
14057;DHT22;7103;54.300;10.180;2022-12-05T06:33:49;5.90;16.80
14057;DHT22;7103;54.300;10.180;2022-12-05T06:36:20;5.90;21.70
14057;DHT22;7103;54.300;10.180;2022-12-05T06:38:47;6.00;26.60
14057;DHT22;7103;54.300;10.180;2022-12-05T06:41:16;5.90;26.50
14057;DHT22;7103;54.300;10.180;2022-12-05T06:43:43;6.10;31.70
14057;DHT22;7103;54.300;10.180;2022-12-05T06:46:12;5.90;37.60
14057;DHT22;7103;54.300;10.180;2022-12-05T06:48:39;6.00;49.40
14057;DHT22;7103;54.300;10.180;2022-12-05T06:51:12;6.00;43.60
14057;DHT22;7103;54.300;10.180;2022-12-05T06:53:41;6.00;48.20
14057;DHT22;7103;54.300;10.180;2022-12-05T06:56:14;6.00;45.80
14057;DHT22;7103;54.300;10.180;2022-12-05T06:58:45;6.00;49.40
14057;DHT22;7103;54.300;10.180;2022-12-05T07:01:16;6.00;49.40
14057;DHT22;7103;54.300;10.180;2022-12-05T07:04:02;6.00;49.40
14057;DHT22;7103;54.300;10.180;2022-12-05T07:06:31;6.00;52.40
14057;DHT22;7103;54.300;10.180;2022-12-05T07:09:02;6.00;54.00
14057;DHT22;7103;54.300;10.180;2022-12-05T07:11:30;6.10;60.70
14057;DHT22;7103;54.300;10.180;2022-12-05T07:13:57;6.10;53.30
14057;DHT22;7103;54.300;10.180;2022-12-05T07:16:24;6.00;49.40
14057;DHT22;7103;54.300;10.180;2022-12-05T07:18:51;6.00;49.40
14057;DHT22;7103;54.300;10.180;2022-12-05T07:21:18;6.00;43.50
14057;DHT22;7103;54.300;10.180;2022-12-05T07:23:48;6.00;49.40
14057;DHT22;7103;54.300;10.180;2022-12-05T07:26:20;6.00;49.40
14057;DHT22;7103;54.300;10.180;2022-12-05T07:28:48;6.00;49.40
14057;DHT22;7103;54.300;10.180;2022-12-05T07:31:26;6.00;55.30
14057;DHT22;7103;54.300;10.180;2022-12-05T07:33:55;6.10;63.50
14057;DHT22;7103;54.300;10.180;2022-12-05T07:36:22;6.10;62.60
14057;DHT22;7103;54.300;10.180;2022-12-05T07:38:54;6.00;55.00
14057;DHT22;7103;54.300;10.180;2022-12-05T07:41:24;6.10;63.90
14057;DHT22;7103;54.300;10.180;2022-12-05T07:43:53;6.10;49.50
14057;DHT22;7103;54.300;10.180;2022-12-05T07:46:21;6.10;37.40
14057;DHT22;7103;54.300;10.180;2022-12-05T07:48:49;6.20;43.50
14057;DHT22;7103;54.300;10.180;2022-12-05T07:51:18;6.10;26.70
14057;DHT22;7103;54.300;10.180;2022-12-05T07:53:48;6.10;26.70
14057;DHT22;7103;54.300;10.180;2022-12-05T07:56:20;6.00;22.80
14057;DHT22;7103;54.300;10.180;2022-12-05T07:58:49;6.10;26.90
14057;DHT22;7103;54.300;10.180;2022-12-05T08:01:19;6.10;41.30
14057;DHT22;7103;54.300;10.180;2022-12-05T08:03:46;6.10;43.50
14057;DHT22;7103;54.300;10.180;2022-12-05T08:06:19;6.10;32.40
14057;DHT22;7103;54.300;10.180;2022-12-05T08:08:46;6.20;31.60
14057;DHT22;7103;54.300;10.180;2022-12-05T08:11:25;6.30;26.80
14057;DHT22;7103;54.300;10.180;2022-12-05T08:13:53;6.10;13.50
14057;DHT22;7103;54.300;10.180;2022-12-05T08:16:23;6.30;17.40
14057;DHT22;7103;54.300;10.180;2022-12-05T08:18:59;6.20;32.00
14057;DHT22;7103;54.300;10.180;2022-12-05T08:21:26;6.20;29.10
14057;DHT22;7103;54.300;10.180;2022-12-05T08:23:53;6.20;26.70
14057;DHT22;7103;54.300;10.180;2022-12-05T08:26:25;6.20;26.70
14057;DHT22;7103;54.300;10.180;2022-12-05T08:28:55;6.30;24.40
14057;DHT22;7103;54.300;10.180;2022-12-05T08:31:23;6.20;31.80
14057;DHT22;7103;54.300;10.180;2022-12-05T08:33:51;6.20;31.80
14057;DHT22;7103;54.300;10.180;2022-12-05T08:36:25;6.20;37.70
14057;DHT22;7103;54.300;10.180;2022-12-05T08:39:02;6.30;28.80
14057;DHT22;7103;54.300;10.180;2022-12-05T08:41:30;6.30;35.10
14057;DHT22;7103;54.300;10.180;2022-12-05T08:43:58;6.20;16.90
14057;DHT22;7103;54.300;10.180;2022-12-05T08:46:27;6.20;26.70
14057;DHT22;7103;54.300;10.180;2022-12-05T08:48:54;6.10;21.80
14057;DHT22;7103;54.300;10.180;2022-12-05T08:51:21;6.10;26.70
14057;DHT22;7103;54.300;10.180;2022-12-05T08:53:48;6.20;31.90
14057;DHT22;7103;54.300;10.180;2022-12-05T08:56:15;6.20;40.70
14057;DHT22;7103;54.300;10.180;2022-12-05T08:58:41;6.30;49.70
14057;DHT22;7103;54.300;10.180;2022-12-05T09:01:11;6.30;49.60
14057;DHT22;7103;54.300;10.180;2022-12-05T09:03:39;6.30;45.60
14057;DHT22;7103;54.300;10.180;2022-12-05T09:06:19;6.30;41.20
14057;DHT22;7103;54.300;10.180;2022-12-05T09:08:47;6.30;26.80
14057;DHT22;7103;54.300;10.180;2022-12-05T09:11:19;6.30;26.80
14057;DHT22;7103;54.300;10.180;2022-12-05T09:13:47;6.20;24.60
14057;DHT22;7103;54.300;10.180;2022-12-05T09:16:26;6.30;37.90
14057;DHT22;7103;54.300;10.180;2022-12-05T09:19:03;6.20;37.80
14057;DHT22;7103;54.300;10.180;2022-12-05T09:21:30;6.30;43.80
14057;DHT22;7103;54.300;10.180;2022-12-05T09:23:58;6.30;46.70
14057;DHT22;7103;54.300;10.180;2022-12-05T09:26:26;6.30;49.70
14057;DHT22;7103;54.300;10.180;2022-12-05T09:28:53;6.30;37.90
14057;DHT22;7103;54.300;10.180;2022-12-05T09:31:24;6.30;41.00
14057;DHT22;7103;54.300;10.180;2022-12-05T09:33:52;6.30;38.00
14057;DHT22;7103;54.300;10.180;2022-12-05T09:36:25;6.50;39.10
14057;DHT22;7103;54.300;10.180;2022-12-05T09:38:53;6.20;35.00
14057;DHT22;7103;54.300;10.180;2022-12-05T09:41:44;6.20;31.80
14057;DHT22;7103;54.300;10.180;2022-12-05T09:44:52;6.10;27.80
14057;DHT22;7103;54.300;10.180;2022-12-05T09:52:37;6.20;42.70
14057;DHT22;7103;54.300;10.180;2022-12-05T09:55:16;6.10;31.90
14057;DHT22;7103;54.300;10.180;2022-12-05T09:57:51;6.10;37.70
14057;DHT22;7103;54.300;10.180;2022-12-05T10:00:18;6.20;60.80
14057;DHT22;7103;54.300;10.180;2022-12-05T10:05:40;6.20;55.20
14057;DHT22;7103;54.300;10.180;2022-12-05T10:08:37;6.10;46.70
14057;DHT22;7103;54.300;10.180;2022-12-05T10:11:18;6.10;55.00
14057;DHT22;7103;54.300;10.180;2022-12-05T10:16:40;6.10;52.00
14057;DHT22;7103;54.300;10.180;2022-12-05T10:19:23;6.10;60.70
14057;DHT22;7103;54.300;10.180;2022-12-05T10:22:00;6.10;65.90
14057;DHT22;7103;54.300;10.180;2022-12-05T10:24:35;6.10;68.70
14057;DHT22;7103;54.300;10.180;2022-12-05T10:27:05;6.10;71.20
14057;DHT22;7103;54.300;10.180;2022-12-05T10:29:37;6.10;74.40
14057;DHT22;7103;54.300;10.180;2022-12-05T10:32:44;6.20;79.10
14057;DHT22;7103;54.300;10.180;2022-12-05T10:35:25;6.10;81.20
14057;DHT22;7103;54.300;10.180;2022-12-05T10:38:18;6.10;81.30
14057;DHT22;7103;54.300;10.180;2022-12-05T10:40:51;6.10;81.30
14057;DHT22;7103;54.300;10.180;2022-12-05T10:43:28;6.10;84.70
14057;DHT22;7103;54.300;10.180;2022-12-05T10:45:56;6.20;94.70
14057;DHT22;7103;54.300;10.180;2022-12-05T10:48:24;6.20;94.80
14057;DHT22;7103;54.300;10.180;2022-12-05T10:50:54;6.20;97.40
14057;DHT22;7103;54.300;10.180;2022-12-05T10:53:28;6.40;99.90
14057;DHT22;7103;54.300;10.180;2022-12-05T10:55:57;6.30;98.90
14057;DHT22;7103;54.300;10.180;2022-12-05T10:58:54;6.30;96.90
14057;DHT22;7103;54.300;10.180;2022-12-05T11:01:24;6.20;90.50
14057;DHT22;7103;54.300;10.180;2022-12-05T11:04:19;6.30;92.90
14057;DHT22;7103;54.300;10.180;2022-12-05T11:07:03;6.30;93.10
14057;DHT22;7103;54.300;10.180;2022-12-05T11:09:35;6.40;94.90
14057;DHT22;7103;54.300;10.180;2022-12-05T11:12:20;6.50;94.90
14057;DHT22;7103;54.300;10.180;2022-12-05T11:15:20;6.40;71.40
14057;DHT22;7103;54.300;10.180;2022-12-05T11:17:48;6.40;71.50
14057;DHT22;7103;54.300;10.180;2022-12-05T11:22:48;6.40;61.00
14057;DHT22;7103;54.300;10.180;2022-12-05T11:27:48;6.30;47.10
14057;DHT22;7103;54.300;10.180;2022-12-05T11:30:20;6.40;49.60
14057;DHT22;7103;54.300;10.180;2022-12-05T11:32:47;6.40;38.00
14057;DHT22;7103;54.300;10.180;2022-12-05T11:35:20;6.30;26.80
14057;DHT22;7103;54.300;10.180;2022-12-05T11:38:04;6.30;32.00
14057;DHT22;7103;54.300;10.180;2022-12-05T11:43:27;6.30;1.00
14057;DHT22;7103;54.300;10.180;2022-12-05T11:51:49;6.30;1.00
14057;DHT22;7103;54.300;10.180;2022-12-05T11:57:27;6.30;1.00
14057;DHT22;7103;54.300;10.180;2022-12-05T12:00:06;6.30;1.00
14057;DHT22;7103;54.300;10.180;2022-12-05T12:05:56;6.20;1.00
14057;DHT22;7103;54.300;10.180;2022-12-05T12:08:34;6.20;1.00
14057;DHT22;7103;54.300;10.180;2022-12-05T12:17:42;6.30;7.00
14057;DHT22;7103;54.300;10.180;2022-12-05T12:19:44;6.30;17.10
14057;DHT22;7103;54.300;10.180;2022-12-05T12:22:29;6.30;16.20
14057;DHT22;7103;54.300;10.180;2022-12-05T12:33:45;6.20;1.00
14057;DHT22;7103;54.300;10.180;2022-12-05T12:39:50;6.20;2.10
14057;DHT22;7103;54.300;10.180;2022-12-05T12:42:47;6.20;1.00
14057;DHT22;7103;54.300;10.180;2022-12-05T12:48:11;6.00;1.00
14057;DHT22;7103;54.300;10.180;2022-12-05T12:50:43;6.10;12.10
14057;DHT22;7103;54.300;10.180;2022-12-05T12:58:59;6.10;40.60
14057;DHT22;7103;54.300;10.180;2022-12-05T13:01:45;6.10;49.50
14057;DHT22;7103;54.300;10.180;2022-12-05T13:04:24;6.00;43.60
14057;DHT22;7103;54.300;10.180;2022-12-05T13:07:04;6.00;49.40
14057;DHT22;7103;54.300;10.180;2022-12-05T13:09:51;6.00;60.60
14057;DHT22;7103;54.300;10.180;2022-12-05T13:12:27;6.00;60.60
14057;DHT22;7103;54.300;10.180;2022-12-05T13:15:06;6.10;68.70
14057;DHT22;7103;54.300;10.180;2022-12-05T13:17:39;6.20;73.50
14057;DHT22;7103;54.300;10.180;2022-12-05T13:20:14;6.30;66.20
14057;DHT22;7103;54.300;10.180;2022-12-05T13:22:43;6.00;52.20
14057;DHT22;7103;54.300;10.180;2022-12-05T13:25:16;6.10;60.70
14057;DHT22;7103;54.300;10.180;2022-12-05T13:27:54;6.00;60.30
14057;DHT22;7103;54.300;10.180;2022-12-05T13:30:22;6.00;61.20
14057;DHT22;7103;54.300;10.180;2022-12-05T13:32:55;6.00;62.80
14057;DHT22;7103;54.300;10.180;2022-12-05T13:35:38;6.10;62.50
14057;DHT22;7103;54.300;10.180;2022-12-05T13:38:32;6.10;55.10
14057;DHT22;7103;54.300;10.180;2022-12-05T13:41:18;6.10;53.60
14057;DHT22;7103;54.300;10.180;2022-12-05T13:44:04;6.10;31.70
14057;DHT22;7103;54.300;10.180;2022-12-05T13:46:40;6.00;37.60
14057;DHT22;7103;54.300;10.180;2022-12-05T13:49:27;6.00;47.40
14057;DHT22;7103;54.300;10.180;2022-12-05T13:52:07;6.00;43.60
14057;DHT22;7103;54.300;10.180;2022-12-05T13:54:42;6.00;43.60
14057;DHT22;7103;54.300;10.180;2022-12-05T14:07:54;5.90;6.80
14057;DHT22;7103;54.300;10.180;2022-12-05T14:15:50;6.00;21.80
14057;DHT22;7103;54.300;10.180;2022-12-05T14:27:06;5.90;1.00
14057;DHT22;7103;54.300;10.180;2022-12-05T14:30:04;6.00;1.80
14057;DHT22;7103;54.300;10.180;2022-12-05T14:32:38;5.90;15.50
14057;DHT22;7103;54.300;10.180;2022-12-05T14:38:00;5.90;26.50
14057;DHT22;7103;54.300;10.180;2022-12-05T14:40:36;5.90;24.50
14057;DHT22;7103;54.300;10.180;2022-12-05T14:43:06;5.90;26.50
14057;DHT22;7103;54.300;10.180;2022-12-05T14:45:39;5.90;43.50
14057;DHT22;7103;54.300;10.180;2022-12-05T14:50:42;6.10;26.70
14057;DHT22;7103;54.300;10.180;2022-12-05T14:53:29;5.80;26.50
14057;DHT22;7103;54.300;10.180;2022-12-05T15:00:58;5.90;38.80
14057;DHT22;7103;54.300;10.180;2022-12-05T15:03:35;5.90;40.90
14057;DHT22;7103;54.300;10.180;2022-12-05T15:06:05;5.90;42.80
14057;DHT22;7103;54.300;10.180;2022-12-05T15:08:46;5.90;37.60
14057;DHT22;7103;54.300;10.180;2022-12-05T15:11:19;5.90;49.30
14057;DHT22;7103;54.300;10.180;2022-12-05T15:16:27;5.90;24.50
14057;DHT22;7103;54.300;10.180;2022-12-05T15:18:59;5.90;26.50
14057;DHT22;7103;54.300;10.180;2022-12-05T15:21:39;5.90;31.50
14057;DHT22;7103;54.300;10.180;2022-12-05T15:24:14;5.90;32.40
14057;DHT22;7103;54.300;10.180;2022-12-05T15:26:55;5.80;16.80
14057;DHT22;7103;54.300;10.180;2022-12-05T15:42:15;5.90;55.20
14057;DHT22;7103;54.300;10.180;2022-12-05T15:44:42;5.80;45.20
14057;DHT22;7103;54.300;10.180;2022-12-05T15:47:21;5.90;59.10
14057;DHT22;7103;54.300;10.180;2022-12-05T15:49:49;5.90;49.30
14057;DHT22;7103;54.300;10.180;2022-12-05T15:52:36;5.80;39.70
14057;DHT22;7103;54.300;10.180;2022-12-05T15:55:09;5.80;49.20
14057;DHT22;7103;54.300;10.180;2022-12-05T15:57:51;5.80;49.20
14057;DHT22;7103;54.300;10.180;2022-12-05T16:00:20;5.80;65.70
14057;DHT22;7103;54.300;10.180;2022-12-05T16:05:48;5.90;60.60
14057;DHT22;7103;54.300;10.180;2022-12-05T16:08:17;5.80;60.50
14057;DHT22;7103;54.300;10.180;2022-12-05T16:10:44;5.80;65.80
14057;DHT22;7103;54.300;10.180;2022-12-05T16:13:14;5.90;71.00
14057;DHT22;7103;54.300;10.180;2022-12-05T16:15:46;5.90;76.10
14057;DHT22;7103;54.300;10.180;2022-12-05T16:18:26;5.90;71.00
14057;DHT22;7103;54.300;10.180;2022-12-05T16:20:54;5.90;65.20
14057;DHT22;7103;54.300;10.180;2022-12-05T16:23:29;5.90;71.00
14057;DHT22;7103;54.300;10.180;2022-12-05T16:26:18;5.90;74.40
14057;DHT22;7103;54.300;10.180;2022-12-05T16:28:59;6.00;73.60
14057;DHT22;7103;54.300;10.180;2022-12-05T16:31:31;5.90;70.50
14057;DHT22;7103;54.300;10.180;2022-12-05T16:34:05;5.90;60.60
14057;DHT22;7103;54.300;10.180;2022-12-05T16:36:33;5.90;66.50
14057;DHT22;7103;54.300;10.180;2022-12-05T16:39:05;6.00;60.60
14057;DHT22;7103;54.300;10.180;2022-12-05T16:41:37;5.80;49.20
14057;DHT22;7103;54.300;10.180;2022-12-05T16:44:15;5.90;58.10
14057;DHT22;7103;54.300;10.180;2022-12-05T16:46:52;5.90;63.90
14057;DHT22;7103;54.300;10.180;2022-12-05T16:51:58;5.90;60.60
14057;DHT22;7103;54.300;10.180;2022-12-05T16:54:25;5.90;60.00
14057;DHT22;7103;54.300;10.180;2022-12-05T16:56:52;5.80;44.50
14057;DHT22;7103;54.300;10.180;2022-12-05T16:59:30;5.80;53.40
14057;DHT22;7103;54.300;10.180;2022-12-05T17:01:57;5.80;49.20
14057;DHT22;7103;54.300;10.180;2022-12-05T17:04:24;5.80;51.60
14057;DHT22;7103;54.300;10.180;2022-12-05T17:06:51;5.90;65.80
14057;DHT22;7103;54.300;10.180;2022-12-05T17:09:18;5.90;60.60
14057;DHT22;7103;54.300;10.180;2022-12-05T17:11:46;5.90;52.80
14057;DHT22;7103;54.300;10.180;2022-12-05T17:14:16;5.80;60.50
14057;DHT22;7103;54.300;10.180;2022-12-05T17:16:44;5.80;60.50
14057;DHT22;7103;54.300;10.180;2022-12-05T17:19:11;5.90;66.10
14057;DHT22;7103;54.300;10.180;2022-12-05T17:21:40;5.80;51.60
14057;DHT22;7103;54.300;10.180;2022-12-05T17:24:18;5.80;49.20
14057;DHT22;7103;54.300;10.180;2022-12-05T17:26:46;5.80;60.50
14057;DHT22;7103;54.300;10.180;2022-12-05T17:29:13;5.90;49.30
14057;DHT22;7103;54.300;10.180;2022-12-05T17:31:39;5.80;54.90
14057;DHT22;7103;54.300;10.180;2022-12-05T17:34:13;5.80;55.10
14057;DHT22;7103;54.300;10.180;2022-12-05T17:36:42;5.80;55.20
14057;DHT22;7103;54.300;10.180;2022-12-05T17:39:09;5.80;56.00
14057;DHT22;7103;54.300;10.180;2022-12-05T17:41:36;5.80;66.30
14057;DHT22;7103;54.300;10.180;2022-12-05T17:44:04;5.90;65.60
14057;DHT22;7103;54.300;10.180;2022-12-05T17:46:31;5.90;51.40
14057;DHT22;7103;54.300;10.180;2022-12-05T17:48:58;5.90;55.10
14057;DHT22;7103;54.300;10.180;2022-12-05T17:51:26;5.80;49.20
14057;DHT22;7103;54.300;10.180;2022-12-05T17:53:53;5.70;41.30
14057;DHT22;7103;54.300;10.180;2022-12-05T17:56:20;5.80;55.30
14057;DHT22;7103;54.300;10.180;2022-12-05T17:58:47;5.80;49.20
14057;DHT22;7103;54.300;10.180;2022-12-05T18:01:17;5.80;60.50
14057;DHT22;7103;54.300;10.180;2022-12-05T18:03:46;5.70;49.10
14057;DHT22;7103;54.300;10.180;2022-12-05T18:06:13;5.70;60.30
14057;DHT22;7103;54.300;10.180;2022-12-05T18:08:41;5.80;54.00
14057;DHT22;7103;54.300;10.180;2022-12-05T18:11:14;5.70;58.80
14057;DHT22;7103;54.300;10.180;2022-12-05T18:13:40;5.60;58.40
14057;DHT22;7103;54.300;10.180;2022-12-05T18:16:07;5.70;73.10
14057;DHT22;7103;54.300;10.180;2022-12-05T18:18:35;5.70;70.90
14057;DHT22;7103;54.300;10.180;2022-12-05T18:21:06;5.70;75.20
14057;DHT22;7103;54.300;10.180;2022-12-05T18:23:35;5.70;70.90
14057;DHT22;7103;54.300;10.180;2022-12-05T18:26:04;5.60;70.80
14057;DHT22;7103;54.300;10.180;2022-12-05T18:28:33;5.60;75.20
14057;DHT22;7103;54.300;10.180;2022-12-05T18:31:07;5.70;83.30
14057;DHT22;7103;54.300;10.180;2022-12-05T18:33:34;5.60;80.90
14057;DHT22;7103;54.300;10.180;2022-12-05T18:36:06;5.60;83.10
14057;DHT22;7103;54.300;10.180;2022-12-05T18:38:35;5.70;86.00
14057;DHT22;7103;54.300;10.180;2022-12-05T18:41:03;5.70;90.30
14057;DHT22;7103;54.300;10.180;2022-12-05T18:43:31;5.80;92.40
14057;DHT22;7103;54.300;10.180;2022-12-05T18:45:59;5.70;97.50
14057;DHT22;7103;54.300;10.180;2022-12-05T18:48:28;5.70;96.70
14057;DHT22;7103;54.300;10.180;2022-12-05T18:51:15;5.70;98.70
14057;DHT22;7103;54.300;10.180;2022-12-05T18:53:44;5.80;99.90
14057;DHT22;7103;54.300;10.180;2022-12-05T18:56:20;5.80;99.90
14057;DHT22;7103;54.300;10.180;2022-12-05T18:58:56;5.80;99.90
14057;DHT22;7103;54.300;10.180;2022-12-05T19:01:24;5.80;99.90